Time;durP1;ratioP1;P1;durP2;ratioP2;P2;SDS_P1;SDS_P2;PMS_P1;PMS_P2;Temp;Humidity;BMP_temperature;BMP_pressure;BME280_temperature;BME280_humidity;BME280_pressure;Samples;Min_cycle;Max_cycle;Signal;HPM_P1;HPM_P2
2022/09/07 00:00:27;;;;;;;12.80;11.13;;;19.10;99.90;;;;;;5096272;28;20036;-88
2022/09/07 00:02:53;;;;;;;14.50;11.30;;;19.10;99.90;;;;;;5093541;28;20039;-88
2022/09/07 00:05:19;;;;;;;13.90;11.07;;;19.00;99.90;;;;;;5092451;28;20058;-88
2022/09/07 00:07:45;;;;;;;14.10;12.60;;;19.10;99.90;;;;;;5119511;28;20051;-88
2022/09/07 00:10:10;;;;;;;13.65;12.25;;;19.00;99.90;;;;;;5092197;28;20071;-87
2022/09/07 00:12:36;;;;;;;13.38;12.07;;;18.90;99.90;;;;;;5109899;28;20426;-87
2022/09/07 00:15:03;;;;;;;14.65;11.55;;;18.90;99.90;;;;;;5089975;28;20419;-88
2022/09/07 00:17:28;;;;;;;14.32;12.13;;;18.90;99.90;;;;;;5107416;28;20046;-90
2022/09/07 00:19:55;;;;;;;15.57;12.40;;;18.90;99.90;;;;;;5119349;28;20437;-89
2022/09/07 00:22:20;;;;;;;13.00;11.60;;;18.90;99.90;;;;;;5099889;28;20039;-89
2022/09/07 00:24:46;;;;;;;13.57;12.10;;;18.80;99.90;;;;;;5102844;28;20062;-90
2022/09/07 00:27:11;;;;;;;15.02;11.75;;;18.80;99.90;;;;;;5126650;28;20540;-89
2022/09/07 00:29:37;;;;;;;17.90;12.95;;;18.80;99.90;;;;;;5097673;28;20047;-90
2022/09/07 00:32:02;;;;;;;14.35;12.80;;;18.80;99.90;;;;;;5090289;28;20137;-89
2022/09/07 00:34:28;;;;;;;13.48;12.07;;;18.80;99.90;;;;;;5108710;28;20035;-89
2022/09/07 00:36:54;;;;;;;13.63;12.23;;;18.90;99.90;;;;;;5090630;28;20470;-90
2022/09/07 00:39:19;;;;;;;13.45;12.00;;;18.80;99.90;;;;;;5099237;28;20043;-88
2022/09/07 00:41:45;;;;;;;14.45;12.35;;;18.80;99.90;;;;;;5115323;28;20036;-88
2022/09/07 00:44:41;;;;;;;13.27;11.82;;;18.70;99.90;;;;;;5070595;28;20040;-89
2022/09/07 00:47:10;;;;;;;14.02;12.57;;;18.70;99.90;;;;;;5096779;27;20461;-90
2022/09/07 00:49:37;;;;;;;14.35;12.38;;;18.60;99.90;;;;;;5112051;28;20395;-88
2022/09/07 00:52:05;;;;;;;15.70;14.20;;;18.70;99.90;;;;;;5077880;27;20047;-90
2022/09/07 00:54:46;;;;;;;16.50;13.70;;;18.60;99.90;;;;;;5098905;27;20074;-90
2022/09/07 00:57:12;;;;;;;;;;;18.60;99.90;;;;;;5094066;28;20552;-88
2022/09/07 00:59:41;;;;;;;16.00;13.63;;;18.50;99.90;;;;;;5113134;28;19920;-89
2022/09/07 01:02:07;;;;;;;16.25;14.55;;;18.50;99.90;;;;;;5080481;28;20035;-91
2022/09/07 01:04:33;;;;;;;16.75;15.07;;;18.40;99.90;;;;;;5111998;27;20060;-92
2022/09/07 01:07:00;;;;;;;17.77;15.13;;;18.50;99.90;;;;;;5105584;28;20086;-92
2022/09/07 01:09:26;;;;;;;18.48;16.58;;;18.40;99.90;;;;;;5085550;27;20080;-88
2022/09/07 01:11:53;;;;;;;21.10;16.98;;;18.40;99.90;;;;;;5077849;27;20557;-88
2022/09/07 01:14:22;;;;;;;19.83;17.73;;;18.30;99.90;;;;;;5098897;28;20047;-88
2022/09/07 01:16:53;;;;;;;21.10;19.02;;;18.30;99.90;;;;;;5080159;27;20046;-88
2022/09/07 01:19:36;;;;;;;20.98;18.95;;;18.30;99.90;;;;;;5124193;27;20081;-88
2022/09/07 01:22:58;;;;;;;22.70;20.33;;;18.30;99.90;;;;;;5096348;27;20383;-89
2022/09/07 01:26:01;;;;;;;21.23;19.23;;;18.20;99.90;;;;;;5072683;28;20079;-90
2022/09/07 01:28:32;;;;;;;22.15;20.02;;;18.20;99.90;;;;;;5108242;27;20043;-89
2022/09/07 01:31:14;;;;;;;22.23;20.20;;;18.20;99.90;;;;;;5090664;27;20036;-88
2022/09/07 01:34:14;;;;;;;21.83;19.73;;;18.20;99.90;;;;;;5130586;27;20051;-86
2022/09/07 01:37:01;;;;;;;22.38;20.00;;;18.20;99.90;;;;;;5110642;27;20043;-86
2022/09/07 01:40:07;;;;;;;21.63;19.42;;;18.20;99.90;;;;;;5096887;28;20463;-87
2022/09/07 01:42:44;;;;;;;23.05;20.83;;;18.20;99.90;;;;;;5110203;27;20054;-88
2022/09/07 01:45:14;;;;;;;23.15;21.00;;;18.20;99.90;;;;;;5076268;28;20541;-89
2022/09/07 01:47:47;;;;;;;23.92;21.52;;;18.20;99.90;;;;;;5087949;27;20035;-90
2022/09/07 01:50:30;;;;;;;24.25;21.67;;;18.20;99.90;;;;;;5127408;27;20032;-89
2022/09/07 01:53:04;;;;;;;24.00;21.60;;;18.20;99.90;;;;;;5095912;28;20073;-91
2022/09/07 01:55:48;;;;;;;25.20;22.80;;;18.10;99.90;;;;;;5112904;28;20043;-91
2022/09/07 01:58:23;;;;;;;24.35;21.88;;;18.10;99.90;;;;;;5088836;28;20036;-90
2022/09/07 02:00:59;;;;;;;24.70;22.20;;;18.10;99.90;;;;;;5115018;27;20035;-91
2022/09/07 02:03:28;;;;;;;24.35;21.88;;;18.00;99.90;;;;;;5100713;28;20055;-89
2022/09/07 02:06:00;;;;;;;25.20;22.83;;;18.00;99.90;;;;;;5075530;28;20047;-92
2022/09/07 02:08:31;;;;;;;25.15;22.65;;;18.00;99.90;;;;;;5076891;28;20086;-91
2022/09/07 02:11:06;;;;;;;24.70;22.30;;;18.00;99.90;;;;;;5092959;28;20040;-90
2022/09/07 02:13:38;;;;;;;24.42;22.10;;;17.90;99.90;;;;;;5097960;27;20047;-90
2022/09/07 02:16:09;;;;;;;24.10;21.80;;;17.80;99.90;;;;;;5112473;27;20103;-88
2022/09/07 02:18:42;;;;;;;;;;;17.90;99.90;;;;;;5099336;28;20046;-89
2022/09/07 02:21:09;;;;;;;23.73;21.65;;;17.90;99.90;;;;;;5092910;28;19919;-90
2022/09/07 02:23:46;;;;;;;25.67;23.00;;;17.90;99.90;;;;;;5110988;27;20064;-90
2022/09/07 02:26:17;;;;;;;24.20;21.92;;;17.90;99.90;;;;;;5106705;28;20108;-89
2022/09/07 02:28:43;;;;;;;25.58;23.27;;;17.90;99.90;;;;;;5102782;27;20082;-90
2022/09/07 02:31:08;;;;;;;24.65;22.45;;;17.90;99.90;;;;;;5131344;27;20391;-89
2022/09/07 02:33:34;;;;;;;24.80;22.48;;;17.90;99.90;;;;;;5111519;27;20039;-90
2022/09/07 02:36:01;;;;;;;25.00;22.50;;;17.90;99.90;;;;;;5114077;27;20075;-87
2022/09/07 02:38:26;;;;;;;25.35;23.05;;;17.90;99.90;;;;;;5094360;27;20035;-89
2022/09/07 02:40:54;;;;;;;22.85;20.65;;;18.00;99.90;;;;;;5126205;27;20444;-86
2022/09/07 02:43:22;;;;;;;22.10;20.10;;;18.00;99.90;;;;;;5095811;27;20031;-89
2022/09/07 02:46:01;;;;;;;22.13;20.02;;;18.00;99.90;;;;;;5110317;27;20050;-90
2022/09/07 02:48:57;;;;;;;23.70;21.38;;;18.00;99.90;;;;;;5126391;27;20115;-91
2022/09/07 02:52:00;;;;;;;24.15;21.75;;;17.90;99.90;;;;;;5056416;28;20075;-89
2022/09/07 02:55:01;;;;;;;23.30;21.10;;;17.90;99.90;;;;;;5050681;27;20085;-90
2022/09/07 02:57:49;;;;;;;24.38;22.05;;;17.90;99.90;;;;;;5120302;27;20426;-88
2022/09/07 03:00:19;;;;;;;24.27;22.08;;;17.90;99.90;;;;;;5076110;28;20044;-91
2022/09/07 03:03:30;;;;;;;22.25;20.13;;;17.90;99.90;;;;;;5105689;27;20122;-89
2022/09/07 03:06:13;;;;;;;;;;;17.80;99.90;;;;;;5096184;27;20043;-87
2022/09/07 03:08:48;;;;;;;21.30;19.20;;;17.70;99.90;;;;;;5098733;27;19919;-89
2022/09/07 03:11:13;;;;;;;23.33;21.02;;;17.70;99.90;;;;;;5108992;27;20035;-90
2022/09/07 03:13:39;;;;;;;23.40;21.20;;;17.80;99.90;;;;;;5098600;27;20054;-90
2022/09/07 03:16:05;;;;;;;22.75;20.70;;;17.80;99.90;;;;;;5112499;27;20538;-89
2022/09/07 03:18:31;;;;;;;23.98;21.77;;;17.80;99.90;;;;;;5093998;27;20040;-89
2022/09/07 03:20:57;;;;;;;23.65;21.42;;;17.80;99.90;;;;;;5094042;28;20039;-88
2022/09/07 03:23:23;;;;;;;23.38;21.25;;;17.80;99.90;;;;;;5114258;27;20058;-90
2022/09/07 03:25:48;;;;;;;23.80;21.70;;;17.70;99.90;;;;;;5105444;28;20036;-90
2022/09/07 03:28:15;;;;;;;23.15;20.95;;;17.70;99.90;;;;;;5075857;27;20097;-89
2022/09/07 03:30:42;;;;;;;23.60;21.33;;;17.80;99.90;;;;;;5097591;27;20414;-90
2022/09/07 03:33:09;;;;;;;24.25;21.95;;;17.70;99.90;;;;;;5119412;27;20097;-90
2022/09/07 03:35:35;;;;;;;24.98;22.67;;;17.70;99.90;;;;;;5075911;28;20082;-90
2022/09/07 03:38:00;;;;;;;23.95;21.70;;;17.70;99.90;;;;;;5109158;27;20074;-90
2022/09/07 03:40:26;;;;;;;22.13;20.13;;;17.70;99.90;;;;;;5114648;27;20043;-89
2022/09/07 03:42:52;;;;;;;22.25;20.13;;;17.70;99.90;;;;;;5090869;28;20042;-89
2022/09/07 03:45:18;;;;;;;22.50;20.40;;;17.70;99.90;;;;;;5074873;28;20066;-89
2022/09/07 03:47:44;;;;;;;21.67;19.67;;;17.70;99.90;;;;;;5090341;28;20040;-89
2022/09/07 03:50:10;;;;;;;23.20;20.80;;;17.70;99.90;;;;;;5076129;28;20051;-89
2022/09/07 03:52:36;;;;;;;23.27;21.10;;;17.70;99.90;;;;;;5092579;28;20085;-90
2022/09/07 03:55:02;;;;;;;21.52;19.50;;;17.70;99.90;;;;;;5096408;28;20039;-89
2022/09/07 03:57:28;;;;;;;21.80;19.70;;;17.70;99.90;;;;;;5091926;28;20040;-90
2022/09/07 03:59:53;;;;;;;21.80;19.73;;;17.70;99.90;;;;;;5087095;28;20460;-90
2022/09/07 04:02:19;;;;;;;22.73;20.52;;;17.70;99.90;;;;;;5093039;28;20039;-90
2022/09/07 04:04:45;;;;;;;21.52;19.42;;;17.70;99.90;;;;;;5089074;28;20427;-89
2022/09/07 04:07:11;;;;;;;21.65;19.65;;;17.80;99.90;;;;;;5095071;28;20080;-88
2022/09/07 04:09:37;;;;;;;20.95;18.85;;;17.70;99.90;;;;;;5110689;28;20035;-90
2022/09/07 04:12:03;;;;;;;20.80;18.80;;;17.70;99.90;;;;;;5075091;28;20074;-90
2022/09/07 04:14:28;;;;;;;20.98;18.98;;;17.70;99.90;;;;;;5076616;28;20126;-89
2022/09/07 04:16:54;;;;;;;23.20;21.02;;;17.70;99.90;;;;;;5092851;28;20079;-89
2022/09/07 04:19:20;;;;;;;21.17;19.08;;;17.70;99.90;;;;;;5111707;28;20040;-89
2022/09/07 04:21:46;;;;;;;21.85;19.85;;;17.70;99.90;;;;;;5094716;28;20039;-90
2022/09/07 04:24:16;;;;;;;23.65;21.30;;;17.70;99.90;;;;;;5107537;27;20083;-92
2022/09/07 04:26:43;;;;;;;21.33;19.33;;;17.70;99.90;;;;;;5080189;28;20054;-90
2022/09/07 04:29:11;;;;;;;20.15;18.20;;;17.70;99.90;;;;;;5081826;28;20079;-90
2022/09/07 04:31:38;;;;;;;21.75;19.73;;;17.70;99.90;;;;;;5094729;27;20126;-91
2022/09/07 04:34:05;;;;;;;21.58;19.50;;;17.60;99.90;;;;;;5082154;27;20047;-90
2022/09/07 04:36:31;;;;;;;21.00;19.00;;;17.60;99.90;;;;;;5123108;27;20122;-90
2022/09/07 04:39:00;;;;;;;21.58;19.58;;;17.60;99.90;;;;;;5127605;27;20060;-91
2022/09/07 04:41:27;;;;;;;21.90;19.98;;;17.60;99.90;;;;;;5081686;28;20529;-91
2022/09/07 04:43:56;;;;;;;21.45;19.40;;;17.70;99.90;;;;;;5089322;27;20040;-91
2022/09/07 04:46:25;;;;;;;22.75;20.45;;;17.70;99.90;;;;;;5096498;28;20085;-92
2022/09/07 04:48:56;;;;;;;22.50;20.48;;;17.60;99.90;;;;;;5101035;27;20503;-92
2022/09/07 04:51:23;;;;;;;22.88;20.77;;;17.60;99.90;;;;;;5113309;27;20055;-90
2022/09/07 04:53:51;;;;;;;21.73;19.75;;;17.60;99.90;;;;;;5091128;27;20039;-91
2022/09/07 04:56:17;;;;;;;24.33;22.02;;;17.70;99.90;;;;;;5087108;27;20126;-88
2022/09/07 04:58:44;;;;;;;23.02;20.95;;;17.60;99.90;;;;;;5118812;27;20069;-89
2022/09/07 05:01:13;;;;;;;24.83;22.52;;;17.60;99.90;;;;;;5095666;28;20136;-90
2022/09/07 05:03:39;;;;;;;23.67;21.58;;;17.60;99.90;;;;;;5092165;27;20116;-86
2022/09/07 05:06:06;;;;;;;22.05;20.02;;;17.60;99.90;;;;;;5125364;27;20048;-89
2022/09/07 05:08:40;;;;;;;22.45;20.25;;;17.60;99.90;;;;;;5085033;27;20035;-87
2022/09/07 05:11:06;;;;;;;21.63;19.75;;;17.60;99.90;;;;;;5123914;27;20039;-88
2022/09/07 05:13:32;;;;;;;21.15;19.27;;;17.60;99.90;;;;;;5095271;28;20048;-88
2022/09/07 05:15:59;;;;;;;20.67;18.85;;;17.70;99.90;;;;;;5094374;28;20055;-89
2022/09/07 05:18:25;;;;;;;22.17;20.25;;;17.70;99.90;;;;;;5095445;28;20042;-87
2022/09/07 05:20:51;;;;;;;22.20;20.10;;;17.70;99.90;;;;;;5106084;28;20189;-88
2022/09/07 05:23:16;;;;;;;23.17;21.17;;;17.70;99.90;;;;;;5118519;27;20573;-88
2022/09/07 05:25:46;;;;;;;20.83;18.88;;;17.70;99.90;;;;;;5120921;27;20048;-88
2022/09/07 05:28:12;;;;;;;22.88;20.77;;;17.70;99.90;;;;;;5075892;28;20036;-89
2022/09/07 05:30:38;;;;;;;22.50;20.45;;;17.70;99.90;;;;;;5092404;27;20203;-88
2022/09/07 05:33:06;;;;;;;20.90;19.00;;;17.70;99.90;;;;;;5091204;28;20321;-88
2022/09/07 05:35:33;;;;;;;20.70;18.80;;;17.70;99.90;;;;;;5112414;27;20051;-89
2022/09/07 05:37:58;;;;;;;22.70;20.70;;;17.60;99.90;;;;;;5112025;28;20040;-88
2022/09/07 05:40:24;;;;;;;22.67;20.65;;;17.70;99.90;;;;;;5096255;27;20061;-89
2022/09/07 05:42:50;;;;;;;24.42;22.25;;;17.80;99.90;;;;;;5111258;28;20035;-87
2022/09/07 05:45:16;;;;;;;24.30;22.05;;;17.80;99.90;;;;;;5093642;28;20044;-87
2022/09/07 05:47:41;;;;;;;25.73;23.42;;;17.80;99.90;;;;;;5093945;28;20035;-90
2022/09/07 05:50:08;;;;;;;26.45;24.02;;;17.80;99.90;;;;;;5092144;28;20549;-90
2022/09/07 05:52:34;;;;;;;26.90;24.40;;;17.80;99.90;;;;;;5093662;28;20122;-87
2022/09/07 05:55:00;;;;;;;27.50;24.98;;;17.80;99.90;;;;;;5112992;27;20548;-89
2022/09/07 05:57:26;;;;;;;27.50;24.77;;;17.80;99.90;;;;;;5086633;28;20044;-88
2022/09/07 05:59:52;;;;;;;28.45;25.80;;;17.70;99.90;;;;;;5093124;28;20084;-91
2022/09/07 06:02:17;;;;;;;26.77;24.42;;;17.80;99.90;;;;;;5094493;28;20504;-90
2022/09/07 06:04:43;;;;;;;26.02;23.63;;;17.80;99.90;;;;;;5112231;28;20445;-92
2022/09/07 06:07:13;;;;;;;25.85;23.45;;;17.80;99.90;;;;;;5093761;28;20690;-91
2022/09/07 06:09:39;;;;;;;27.58;24.98;;;17.80;99.90;;;;;;5075861;28;20220;-90
2022/09/07 06:12:05;;;;;;;29.65;26.90;;;17.90;99.90;;;;;;5101186;27;20058;-91
2022/09/07 06:14:32;;;;;;;30.85;28.25;;;17.90;99.90;;;;;;5128048;27;20031;-90
2022/09/07 06:16:58;;;;;;;28.88;26.40;;;17.90;99.90;;;;;;5131319;27;20538;-90
2022/09/07 06:19:23;;;;;;;29.75;27.13;;;17.90;99.90;;;;;;5109163;27;20051;-90
2022/09/07 06:21:49;;;;;;;32.08;29.17;;;17.90;99.90;;;;;;5103181;27;20115;-87
2022/09/07 06:24:15;;;;;;;30.40;27.60;;;18.00;99.90;;;;;;5100371;27;20075;-90
2022/09/07 06:26:40;;;;;;;32.45;29.45;;;18.00;99.90;;;;;;5094755;27;20042;-90
2022/09/07 06:29:07;;;;;;;33.97;30.92;;;18.00;99.90;;;;;;5082013;28;20092;-89
2022/09/07 06:31:33;;;;;;;34.17;30.88;;;18.00;99.90;;;;;;5110937;27;20039;-90
2022/09/07 06:33:59;;;;;;;34.85;31.63;;;18.10;99.90;;;;;;5075971;28;20318;-91
2022/09/07 06:36:26;;;;;;;35.05;31.85;;;18.00;99.90;;;;;;5077817;28;20039;-89
2022/09/07 06:38:57;;;;;;;34.17;30.85;;;18.10;99.90;;;;;;5090575;27;20048;-90
2022/09/07 06:41:27;;;;;;;;;;;18.10;99.90;;;;;;5092543;28;20513;-89
2022/09/07 06:43:54;;;;;;;34.13;30.70;;;18.00;99.90;;;;;;5064218;28;20084;-89
2022/09/07 06:46:21;;;;;;;35.42;32.13;;;18.10;99.90;;;;;;5097891;27;20046;-89
2022/09/07 06:48:46;;;;;;;35.17;31.77;;;18.20;99.90;;;;;;5092078;28;20040;-90
2022/09/07 06:51:14;;;;;;;35.83;32.33;;;18.30;99.90;;;;;;5075492;28;20047;-91
2022/09/07 06:53:41;;;;;;;33.85;30.60;;;18.30;99.90;;;;;;5093146;28;20079;-89
2022/09/07 06:56:09;;;;;;;33.47;30.42;;;18.30;99.90;;;;;;5105782;28;20306;-90
2022/09/07 06:58:36;;;;;;;33.40;30.20;;;18.30;99.90;;;;;;5075856;28;20040;-90
2022/09/07 07:01:12;;;;;;;33.85;30.65;;;18.30;99.90;;;;;;5092190;28;20399;-90
2022/09/07 07:03:38;;;;;;;35.20;31.67;;;18.30;99.90;;;;;;5060151;28;20051;-89
2022/09/07 07:06:05;;;;;;;33.47;30.27;;;18.30;99.90;;;;;;5070398;28;20404;-89
2022/09/07 07:08:31;;;;;;;34.65;31.45;;;18.30;99.90;;;;;;5075832;28;20039;-90
2022/09/07 07:11:09;;;;;;;33.70;30.55;;;18.40;99.90;;;;;;5088688;28;20474;-89
2022/09/07 07:13:35;;;;;;;34.38;30.98;;;18.30;99.90;;;;;;5076875;28;20039;-87
2022/09/07 07:16:02;;;;;;;33.47;30.27;;;18.30;99.90;;;;;;5098226;28;20123;-89
2022/09/07 07:18:28;;;;;;;33.70;30.30;;;18.50;99.90;;;;;;5090312;27;20118;-89
2022/09/07 07:20:54;;;;;;;33.20;29.90;;;18.40;99.90;;;;;;5072534;28;20134;-87
2022/09/07 07:23:19;;;;;;;32.28;29.17;;;18.30;99.90;;;;;;5075337;28;20051;-89
2022/09/07 07:25:45;;;;;;;34.53;30.92;;;18.40;99.90;;;;;;5074534;28;20040;-89
2022/09/07 07:28:11;;;;;;;35.13;31.65;;;18.50;99.90;;;;;;5076519;28;20037;-89
2022/09/07 07:30:36;;;;;;;34.88;31.42;;;18.50;99.90;;;;;;5098321;28;20088;-92
2022/09/07 07:33:40;;;;;;;33.33;29.92;;;18.50;99.90;;;;;;5098321;28;20040;-92
2022/09/07 07:36:11;;;;;;;34.05;30.58;;;18.60;99.90;;;;;;5070091;28;20123;-92
2022/09/07 07:38:38;;;;;;;34.47;31.17;;;18.60;99.90;;;;;;5065287;28;20040;-91
2022/09/07 07:41:05;;;;;;;33.83;30.52;;;18.60;99.90;;;;;;5067515;28;20207;-93
2022/09/07 07:43:30;;;;;;;34.83;31.15;;;18.60;99.90;;;;;;5076220;28;20043;-93
2022/09/07 07:45:58;;;;;;;34.60;30.98;;;18.60;99.90;;;;;;5109276;27;20460;-96
2022/09/07 07:48:27;;;;;;;33.22;29.90;;;18.60;99.90;;;;;;5100436;28;20441;-94
2022/09/07 07:51:01;;;;;;;31.42;28.35;;;18.60;99.90;;;;;;5098884;28;20123;-93
2022/09/07 07:53:27;;;;;;;32.85;29.55;;;18.60;99.90;;;;;;5080382;28;20047;-93
2022/09/07 07:55:57;;;;;;;33.13;29.63;;;18.70;99.90;;;;;;5081414;28;20353;-93
2022/09/07 07:58:31;;;;;;;33.50;30.07;;;18.60;99.90;;;;;;5088040;28;20035;-94
2022/09/07 08:01:03;;;;;;;32.85;29.45;;;18.60;99.90;;;;;;5088581;28;20031;-93
2022/09/07 08:03:29;;;;;;;31.58;28.35;;;18.60;99.90;;;;;;5097473;28;20043;-94
2022/09/07 08:05:55;;;;;;;29.75;26.67;;;18.60;99.90;;;;;;5099631;28;20047;-93
2022/09/07 08:08:23;;;;;;;29.80;26.80;;;18.60;99.90;;;;;;5084086;27;20046;-95
2022/09/07 08:10:52;;;;;;;31.20;28.00;;;18.60;99.90;;;;;;5101419;28;20036;-95
2022/09/07 08:13:39;;;;;;;30.23;27.20;;;18.70;99.90;;;;;;5098009;28;20047;-96
2022/09/07 08:16:36;;;;;;;30.40;27.13;;;18.80;99.90;;;;;;5078586;28;20055;-95
2022/09/07 08:19:24;;;;;;;28.73;25.83;;;18.80;99.90;;;;;;5084419;28;20048;-95
2022/09/07 08:22:04;;;;;;;29.10;26.15;;;18.90;99.90;;;;;;5102053;28;20054;-95
2022/09/07 08:24:37;;;;;;;29.38;26.40;;;19.00;99.90;;;;;;5102126;28;20050;-95
2022/09/07 08:27:04;;;;;;;29.05;26.17;;;19.20;99.90;;;;;;5098658;28;20047;-95
2022/09/07 08:29:38;;;;;;;27.83;25.02;;;19.20;99.90;;;;;;5102837;28;20073;-96
2022/09/07 08:32:05;;;;;;;27.85;24.98;;;19.20;99.90;;;;;;5082414;27;20051;-96
2022/09/07 08:34:31;;;;;;;25.25;22.67;;;19.30;99.90;;;;;;5086624;28;20047;-96
2022/09/07 08:36:57;;;;;;;27.17;24.48;;;19.50;99.90;;;;;;5100552;28;20392;-94
2022/09/07 08:39:22;;;;;;;26.27;23.73;;;19.60;99.90;;;;;;5094384;28;20043;-94
2022/09/07 08:42:09;;;;;;;25.00;22.60;;;19.60;99.90;;;;;;5076524;28;20048;-93
2022/09/07 08:44:43;;;;;;;20.90;18.80;;;19.60;99.90;;;;;;5081336;28;20043;-93
2022/09/07 08:47:37;;;;;;;21.08;18.88;;;19.50;99.90;;;;;;5099171;28;20473;-92
2022/09/07 08:50:24;;;;;;;20.52;18.42;;;19.40;99.90;;;;;;5082330;28;20449;-93
2022/09/07 08:53:03;;;;;;;20.13;18.23;;;19.40;99.90;;;;;;5079474;28;20494;-94
2022/09/07 08:55:55;;;;;;;20.13;18.17;;;19.40;99.90;;;;;;5084730;27;20057;-94
2022/09/07 08:58:49;;;;;;;20.27;18.20;;;19.40;99.90;;;;;;5089611;28;20130;-93
2022/09/07 09:01:17;;;;;;;20.67;18.58;;;19.40;99.90;;;;;;5082860;28;20047;-93
2022/09/07 09:03:43;;;;;;;21.40;19.20;;;19.50;99.90;;;;;;5084315;28;20060;-94
2022/09/07 09:06:19;;;;;;;20.80;18.35;;;19.50;99.90;;;;;;5085811;27;20336;-94
2022/09/07 09:09:05;;;;;;;21.13;18.98;;;19.60;99.90;;;;;;5097271;27;20104;-94
2022/09/07 09:11:37;;;;;;;20.88;18.77;;;19.60;99.90;;;;;;5101294;28;20111;-94
2022/09/07 09:14:47;;;;;;;21.25;19.05;;;19.60;99.90;;;;;;5089652;28;20043;-92
2022/09/07 09:17:34;;;;;;;20.45;18.38;;;19.70;99.90;;;;;;4981325;28;20058;-91
2022/09/07 09:19:59;;;;;;;20.63;18.55;;;19.70;99.90;;;;;;4996088;28;20073;-94
2022/09/07 09:22:27;;;;;;;21.85;19.60;;;19.70;99.90;;;;;;4995142;28;20390;-92
2022/09/07 09:25:04;;;;;;;20.13;18.15;;;19.70;99.90;;;;;;4979069;28;20449;-91
2022/09/07 09:27:30;;;;;;;19.85;17.75;;;19.80;99.90;;;;;;5026163;28;20064;-92
2022/09/07 09:29:56;;;;;;;18.88;16.92;;;19.80;99.90;;;;;;4994042;28;20037;-87
2022/09/07 09:32:38;;;;;;;17.83;15.95;;;19.90;99.90;;;;;;5009306;28;21200;-89
2022/09/07 09:35:14;;;;;;;17.30;15.55;;;20.00;99.90;;;;;;4992848;28;20053;-88
2022/09/07 09:37:41;;;;;;;17.40;15.60;;;20.10;99.90;;;;;;5009570;28;20077;-87
2022/09/07 09:40:18;;;;;;;17.38;15.05;;;20.20;99.90;;;;;;4991343;28;20100;-87
2022/09/07 09:42:43;;;;;;;16.45;14.75;;;20.20;99.90;;;;;;5009265;28;20379;-87
2022/09/07 09:45:20;;;;;;;16.92;15.23;;;20.30;99.90;;;;;;5025218;28;20218;-87
2022/09/07 09:47:51;;;;;;;16.17;14.57;;;20.30;99.90;;;;;;4992087;28;20057;-87
2022/09/07 09:50:22;;;;;;;14.43;12.50;;;20.40;99.90;;;;;;4977067;28;20506;-89
2022/09/07 09:52:49;;;;;;;13.32;12.02;;;20.40;99.90;;;;;;5051320;28;20399;-88
2022/09/07 09:55:31;;;;;;;12.63;11.15;;;20.40;99.90;;;;;;5097165;28;20046;-89
2022/09/07 09:58:02;;;;;;;12.52;11.10;;;20.40;99.90;;;;;;5101067;28;20446;-89
2022/09/07 10:00:31;;;;;;;13.55;12.13;;;20.40;99.90;;;;;;5077478;28;20048;-88
2022/09/07 10:03:14;;;;;;;13.23;11.93;;;20.50;99.90;;;;;;5111076;28;20044;-89
2022/09/07 10:05:47;;;;;;;12.73;11.30;;;20.50;99.90;;;;;;5094511;28;20110;-89
2022/09/07 10:08:23;;;;;;;12.45;10.88;;;20.60;99.90;;;;;;5084458;28;20035;-96
2022/09/07 10:11:05;;;;;;;13.02;11.63;;;20.70;99.90;;;;;;5099210;28;20050;-96
2022/09/07 10:13:33;;;;;;;13.30;10.55;;;20.70;99.90;;;;;;5084160;28;20048;-95
2022/09/07 10:16:05;;;;;;;12.20;10.88;;;20.90;99.90;;;;;;5122595;28;20075;-94
2022/09/07 10:18:37;;;;;;;12.35;10.82;;;20.90;99.90;;;;;;5083220;28;20043;-96
2022/09/07 10:21:20;;;;;;;12.02;10.20;;;21.10;99.90;;;;;;5099114;28;20039;-95
2022/09/07 10:23:46;;;;;;;11.73;10.38;;;21.10;99.90;;;;;;5079480;28;20503;-93
2022/09/07 10:26:30;;;;;;;11.52;9.23;;;21.10;99.90;;;;;;5097909;28;20050;-94
2022/09/07 10:29:15;;;;;;;9.45;8.18;;;21.10;99.90;;;;;;5077096;28;20047;-94
2022/09/07 10:32:18;;;;;;;10.13;8.10;;;21.10;99.90;;;;;;5078256;28;20043;-94
2022/09/07 10:34:55;;;;;;;9.45;7.63;;;21.10;99.90;;;;;;5061437;28;20130;-96
2022/09/07 10:37:48;;;;;;;9.68;7.15;;;21.10;99.90;;;;;;5079945;28;20067;-94
2022/09/07 10:40:46;;;;;;;9.05;6.45;;;21.10;99.90;;;;;;5099214;28;20028;-93
2022/09/07 10:43:34;;;;;;;9.48;6.40;;;21.10;99.90;;;;;;5130404;28;20089;-93
2022/09/07 10:46:24;;;;;;;9.30;6.85;;;21.10;99.90;;;;;;5102135;28;20075;-91
2022/09/07 10:49:27;;;;;;;9.95;6.63;;;21.10;99.90;;;;;;5115567;28;20078;-91
2022/09/07 10:52:22;;;;;;;8.95;6.07;;;21.10;99.90;;;;;;5135632;28;20032;-92
2022/09/07 10:54:48;;;;;;;8.73;5.90;;;21.20;99.90;;;;;;5120292;28;20039;-92
2022/09/07 10:57:51;;;;;;;9.07;5.75;;;21.30;99.90;;;;;;5118450;27;20051;-91
2022/09/07 11:00:19;;;;;;;9.38;6.20;;;21.40;99.90;;;;;;5091469;28;20044;-93
2022/09/07 11:03:24;;;;;;;9.82;6.43;;;21.40;99.90;;;;;;5072583;28;20089;-92
2022/09/07 11:06:09;;;;;;;8.90;6.18;;;21.40;99.90;;;;;;5083775;28;20048;-93
2022/09/07 11:08:55;;;;;;;12.63;7.03;;;21.40;99.90;;;;;;5079588;28;20040;-92
2022/09/07 11:11:53;;;;;;;8.00;5.32;;;21.40;99.90;;;;;;5109547;27;20046;-92
2022/09/07 11:14:23;;;;;;;7.80;5.25;;;21.40;99.90;;;;;;5100919;27;20054;-93
2022/09/07 11:16:57;;;;;;;7.47;5.10;;;21.40;99.90;;;;;;5141906;27;20040;-91
2022/09/07 11:19:43;;;;;;;7.65;5.15;;;21.50;99.90;;;;;;5120517;27;20150;-91
2022/09/07 11:22:28;;;;;;;9.40;6.13;;;21.50;99.90;;;;;;5108938;28;20058;-91
2022/09/07 11:25:03;;;;;;;8.95;6.25;;;21.50;99.90;;;;;;5111916;28;20053;-91
2022/09/07 11:27:39;;;;;;;9.50;6.47;;;21.40;99.90;;;;;;5110468;28;20063;-90
2022/09/07 11:30:18;;;;;;;9.82;7.75;;;21.40;99.90;;;;;;5103592;28;20060;-92
2022/09/07 11:32:54;;;;;;;11.20;7.47;;;21.30;99.90;;;;;;5098674;28;20391;-92
2022/09/07 11:35:22;;;;;;;10.95;7.85;;;21.20;99.90;;;;;;5115461;27;20051;-92
2022/09/07 11:37:58;;;;;;;11.35;7.82;;;21.20;99.90;;;;;;5114543;28;20043;-91
2022/09/07 11:40:32;;;;;;;8.43;5.25;;;21.20;99.90;;;;;;5093119;28;20043;-94
2022/09/07 11:43:05;;;;;;;9.30;5.20;;;21.30;99.90;;;;;;5076832;28;20361;-93
2022/09/07 11:45:44;;;;;;;10.27;6.30;;;21.40;99.90;;;;;;5086915;28;20040;-92
2022/09/07 11:48:17;;;;;;;10.00;6.72;;;21.50;99.90;;;;;;5072948;28;20044;-93
2022/09/07 11:50:47;;;;;;;11.38;6.80;;;21.50;99.90;;;;;;5113360;28;20046;-94
2022/09/07 11:53:13;;;;;;;10.98;6.63;;;21.60;99.90;;;;;;5076101;28;20043;-92
2022/09/07 11:55:45;;;;;;;9.75;7.07;;;21.60;99.90;;;;;;5095019;28;20055;-93
2022/09/07 11:58:26;;;;;;;10.52;7.40;;;21.70;99.90;;;;;;5075062;28;20122;-94
2022/09/07 12:01:16;;;;;;;8.60;6.03;;;21.70;99.90;;;;;;5076791;28;20052;-92
2022/09/07 12:04:11;;;;;;;8.20;5.85;;;21.80;99.90;;;;;;5078515;28;20060;-91
2022/09/07 12:07:06;;;;;;;8.75;6.07;;;21.70;99.90;;;;;;5093357;28;20051;-93
2022/09/07 12:09:42;;;;;;;9.40;6.32;;;21.70;99.90;;;;;;5111169;28;20039;-89
2022/09/07 12:12:16;;;;;;;9.65;5.82;;;21.70;99.90;;;;;;5076824;28;20109;-91
2022/09/07 12:14:47;;;;;;;8.50;5.07;;;21.80;99.90;;;;;;5075475;28;20040;-90
2022/09/07 12:17:28;;;;;;;8.43;4.82;;;21.80;99.90;;;;;;5082006;28;20368;-91
2022/09/07 12:20:22;;;;;;;8.60;4.72;;;21.80;99.90;;;;;;5093187;28;20051;-93
2022/09/07 12:23:15;;;;;;;6.95;4.30;;;21.90;99.90;;;;;;5072369;28;20048;-93
2022/09/07 12:25:47;;;;;;;6.93;4.40;;;21.90;99.90;;;;;;5084466;28;20046;-94
2022/09/07 12:28:36;;;;;;;9.07;5.85;;;22.20;99.90;;;;;;5113890;28;20047;-92
2022/09/07 12:31:04;;;;;;;7.85;4.60;;;22.10;99.90;;;;;;5092971;28;20040;-93
2022/09/07 12:33:35;;;;;;;6.68;3.92;;;22.20;99.90;;;;;;5119997;28;20047;-92
2022/09/07 12:36:01;;;;;;;6.85;4.50;;;22.30;99.90;;;;;;5095612;28;20039;-90
2022/09/07 12:38:30;;;;;;;8.40;4.53;;;22.30;99.90;;;;;;5111654;28;20040;-92
2022/09/07 12:41:22;;;;;;;8.15;4.53;;;22.30;99.90;;;;;;5107958;28;20040;-92
2022/09/07 12:43:48;;;;;;;7.57;4.78;;;22.30;99.90;;;;;;5111807;28;20035;-91
2022/09/07 12:46:36;;;;;;;6.03;3.60;;;22.40;99.90;;;;;;5135592;28;20031;-92
2022/09/07 12:49:13;;;;;;;7.20;3.80;;;22.40;99.90;;;;;;5133739;28;20047;-92
2022/09/07 12:51:39;;;;;;;6.15;3.47;;;22.40;99.90;;;;;;5136639;28;20052;-93
2022/09/07 12:54:28;;;;;;;6.88;3.28;;;22.40;99.90;;;;;;5081745;28;20048;-93
2022/09/07 12:57:22;;;;;;;7.78;3.40;;;22.40;99.90;;;;;;5097681;28;20055;-92
2022/09/07 13:00:19;;;;;;;6.53;3.60;;;22.40;99.90;;;;;;5115037;28;20044;-93